createdAt,value
2023-04-10T00:02:05.666Z,6.22
2023-04-10T00:04:33.822Z,6.23
2023-04-10T00:07:01.791Z,6.25
2023-04-10T00:09:30.119Z,6.19
2023-04-10T00:11:58.013Z,6.17
2023-04-10T00:14:25.937Z,6.10
2023-04-10T00:16:53.842Z,6.09
2023-04-10T00:19:23.140Z,6.10
2023-04-10T00:21:50.990Z,6.01
2023-04-10T00:24:18.854Z,6.03
2023-04-10T00:26:46.858Z,6.02
2023-04-10T00:29:14.712Z,5.96
2023-04-10T00:31:42.726Z,5.86
2023-04-10T00:34:11.795Z,5.86
2023-04-10T00:36:41.125Z,5.85
2023-04-10T00:39:09.797Z,5.83
2023-04-10T00:41:37.725Z,5.81
2023-04-10T00:44:05.710Z,5.76
2023-04-10T00:46:35.341Z,5.71
2023-04-10T00:49:03.469Z,5.74
2023-04-10T00:51:31.792Z,5.66
2023-04-10T00:54:02.774Z,5.65
2023-04-10T00:56:32.348Z,5.66
2023-04-10T00:59:00.701Z,5.61
2023-04-10T01:01:28.652Z,5.60
2023-04-10T01:03:58.753Z,5.57
2023-04-10T01:06:36.713Z,5.63
2023-04-10T01:09:18.614Z,5.56
2023-04-10T01:11:53.594Z,5.48
2023-04-10T01:14:32.266Z,5.54
2023-04-10T01:17:06.396Z,5.52
2023-04-10T01:20:00.988Z,5.49
2023-04-10T01:22:36.357Z,5.54
2023-04-10T01:25:20.607Z,5.49
2023-04-10T01:28:06.099Z,5.48
2023-04-10T01:30:37.125Z,5.48
2023-04-10T01:33:10.508Z,5.52
2023-04-10T01:35:39.707Z,5.45
2023-04-10T01:38:08.607Z,5.47
2023-04-10T01:40:39.166Z,5.50
2023-04-10T01:43:11.277Z,5.42
2023-04-10T01:45:52.678Z,5.41
2023-04-10T01:48:21.767Z,5.48
2023-04-10T01:50:51.715Z,5.41
2023-04-10T01:53:19.943Z,5.42
2023-04-10T01:55:48.995Z,5.48
2023-04-10T01:58:17.515Z,5.46
2023-04-10T02:00:47.212Z,5.51
2023-04-10T02:03:16.569Z,5.45
2023-04-10T02:05:55.915Z,5.45
2023-04-10T02:08:31.375Z,5.47
2023-04-10T02:11:05.224Z,5.46
2023-04-10T02:13:36.524Z,5.43
2023-04-10T02:16:08.889Z,5.47
2023-04-10T02:18:39.634Z,5.40
2023-04-10T02:21:09.670Z,5.39
2023-04-10T02:23:38.269Z,5.38
2023-04-10T02:26:09.964Z,5.36
2023-04-10T02:28:39.184Z,5.38
2023-04-10T02:31:09.151Z,5.37
2023-04-10T02:33:37.184Z,5.40
2023-04-10T02:36:06.259Z,5.44
2023-04-10T02:38:34.199Z,5.45
2023-04-10T02:41:02.535Z,5.49
2023-04-10T02:43:30.671Z,5.48
2023-04-10T02:46:00.098Z,5.53
2023-04-10T02:48:33.007Z,5.51
2023-04-10T02:51:03.967Z,5.50
2023-04-10T02:53:31.867Z,5.53
2023-04-10T02:56:02.435Z,5.56
2023-04-10T02:58:31.725Z,5.55
2023-04-10T03:01:01.654Z,5.58
2023-04-10T03:03:58.207Z,5.57
2023-04-10T03:06:30.177Z,5.55
2023-04-10T03:08:59.155Z,5.56
2023-04-10T03:11:28.419Z,5.52
2023-04-10T03:13:58.187Z,5.50
2023-04-10T03:16:26.346Z,5.47
2023-04-10T03:18:54.748Z,5.49
2023-04-10T03:21:24.037Z,5.48
2023-04-10T03:23:52.549Z,5.45
2023-04-10T03:26:21.003Z,5.45
2023-04-10T03:28:48.974Z,5.50
2023-04-10T03:31:16.872Z,5.47
2023-04-10T03:33:46.514Z,5.49
2023-04-10T03:36:14.531Z,5.49
2023-04-10T03:38:43.822Z,5.47
2023-04-10T03:41:11.694Z,5.45
2023-04-10T03:43:40.455Z,5.46
2023-04-10T03:46:09.291Z,5.43
2023-04-10T03:48:42.580Z,5.41
2023-04-10T03:51:11.569Z,5.39
2023-04-10T03:53:39.363Z,5.39
2023-04-10T03:56:13.466Z,5.38
2023-04-10T03:58:42.235Z,5.39
2023-04-10T04:01:11.282Z,5.34
2023-04-10T04:03:56.549Z,5.32
2023-04-10T04:06:48.679Z,5.34
2023-04-10T04:09:50.432Z,5.36
2023-04-10T04:12:41.140Z,5.37
2023-04-10T04:15:22.279Z,5.39
2023-04-10T04:18:16.412Z,5.36
2023-04-10T04:20:49.218Z,5.37
2023-04-10T04:23:33.369Z,5.40
2023-04-10T04:26:27.363Z,5.36
2023-04-10T04:29:15.861Z,5.37
2023-04-10T04:32:09.663Z,5.37
2023-04-10T04:35:02.112Z,5.39
2023-04-10T04:37:48.564Z,5.42
2023-04-10T04:40:22.731Z,5.46
2023-04-10T04:43:16.660Z,5.50
2023-04-10T04:46:04.827Z,5.49
2023-04-10T04:48:51.617Z,5.52
2023-04-10T04:51:45.983Z,5.52
2023-04-10T04:54:38.953Z,5.51
2023-04-10T04:57:18.203Z,5.52
2023-04-10T04:59:57.777Z,5.59
2023-04-10T05:02:47.064Z,5.60
2023-04-10T05:05:30.096Z,5.64
2023-04-10T05:08:11.676Z,5.67
2023-04-10T05:11:00.615Z,5.70
2023-04-10T05:13:46.932Z,5.75
2023-04-10T05:16:23.120Z,5.80
2023-04-10T05:19:06.432Z,5.83
2023-04-10T05:21:53.152Z,5.89
2023-04-10T05:24:53.302Z,5.95
2023-04-10T05:27:37.429Z,6.01
2023-04-10T05:30:27.710Z,6.06
2023-04-10T05:33:13.938Z,6.14
2023-04-10T05:36:05.425Z,6.23
2023-04-10T05:38:47.553Z,6.35
2023-04-10T05:41:35.960Z,6.41
2023-04-10T05:44:28.214Z,6.58
2023-04-10T05:47:24.324Z,6.93
2023-04-10T05:50:15.008Z,7.32
2023-04-10T05:53:01.098Z,7.50
2023-04-10T05:55:43.292Z,7.44
2023-04-10T05:58:34.008Z,8.06
2023-04-10T06:01:26.700Z,8.50
2023-04-10T06:04:01.113Z,8.72
2023-04-10T06:06:29.822Z,8.48
2023-04-10T06:08:59.361Z,8.60
2023-04-10T06:11:27.240Z,8.66
2023-04-10T06:13:56.686Z,8.77
2023-04-10T06:16:31.641Z,8.72
2023-04-10T06:18:59.812Z,8.88
2023-04-10T06:21:27.718Z,9.03
2023-04-10T06:23:55.798Z,9.25
2023-04-10T06:26:25.857Z,9.33
2023-04-10T06:28:54.331Z,9.63
2023-04-10T06:31:23.143Z,9.28
2023-04-10T06:33:51.390Z,9.53
2023-04-10T06:36:19.685Z,9.56
2023-04-10T06:38:58.654Z,9.89
2023-04-10T06:41:28.103Z,10.08
2023-04-10T06:43:57.461Z,10.50
2023-04-10T06:46:25.344Z,10.99
2023-04-10T06:48:53.346Z,10.79
2023-04-10T06:51:21.366Z,10.68
2023-04-10T06:53:49.201Z,11.17
2023-04-10T06:56:17.038Z,11.07
2023-04-10T06:58:46.476Z,11.26
2023-04-10T07:01:14.392Z,11.91
2023-04-10T07:03:42.442Z,11.72
2023-04-10T07:06:11.767Z,11.86
2023-04-10T07:08:39.666Z,12.60
2023-04-10T07:11:08.044Z,11.93
2023-04-10T07:13:38.764Z,12.22
2023-04-10T07:16:09.730Z,11.86
2023-04-10T07:18:38.500Z,12.33
2023-04-10T07:21:12.116Z,12.60
2023-04-10T07:23:40.090Z,12.88
2023-04-10T07:26:08.235Z,12.83
2023-04-10T07:28:36.496Z,13.29
2023-04-10T07:31:04.400Z,14.12
2023-04-10T07:33:33.674Z,13.82
2023-04-10T07:36:02.548Z,13.24
2023-04-10T07:38:30.662Z,13.30
2023-04-10T07:40:58.987Z,13.67
2023-04-10T07:43:27.067Z,14.11
2023-04-10T07:45:54.977Z,14.26
2023-04-10T07:48:23.092Z,14.15
2023-04-10T07:50:52.338Z,13.67
2023-04-10T07:53:20.192Z,13.44
2023-04-10T07:55:49.015Z,12.82
2023-04-10T07:58:17.060Z,12.92
2023-04-10T08:00:45.510Z,13.06
2023-04-10T08:03:13.897Z,13.28
2023-04-10T08:05:41.985Z,13.47
2023-04-10T08:08:11.164Z,14.04
2023-04-10T08:10:39.275Z,13.58
2023-04-10T08:13:07.473Z,13.50
2023-04-10T08:15:35.443Z,14.06
2023-04-10T08:18:03.480Z,14.14
2023-04-10T08:20:36.676Z,14.33
2023-04-10T08:23:19.164Z,14.02
2023-04-10T08:25:49.740Z,14.47
2023-04-10T08:28:17.652Z,14.77
2023-04-10T08:30:45.674Z,14.82
2023-04-10T08:33:13.591Z,15.03
2023-04-10T08:35:41.415Z,15.77
2023-04-10T08:38:14.001Z,15.97
2023-04-10T08:40:44.386Z,15.97
2023-04-10T08:43:13.741Z,16.06
2023-04-10T08:45:41.929Z,15.75
2023-04-10T08:48:12.020Z,16.24
2023-04-10T08:50:43.098Z,15.65
2023-04-10T08:53:13.191Z,15.57
2023-04-10T08:55:42.436Z,15.88
2023-04-10T08:58:11.388Z,16.06
2023-04-10T09:00:40.991Z,15.81
2023-04-10T09:03:11.889Z,15.99
2023-04-10T09:05:39.945Z,16.79
2023-04-10T09:08:09.770Z,16.50
2023-04-10T09:10:37.669Z,16.15
2023-04-10T09:13:05.632Z,15.40
2023-04-10T09:16:01.354Z,15.18
2023-04-10T09:18:48.428Z,15.39
2023-04-10T09:21:18.194Z,14.86
2023-04-10T09:23:47.661Z,14.70
2023-04-10T09:26:26.235Z,15.16
2023-04-10T09:28:58.922Z,14.80
2023-04-10T09:31:33.781Z,15.42
2023-04-10T09:34:10.394Z,15.54
2023-04-10T09:36:38.774Z,15.65
2023-04-10T09:39:07.111Z,15.70
2023-04-10T09:41:35.105Z,15.98
2023-04-10T09:44:11.401Z,15.89
2023-04-10T09:46:40.673Z,16.57
2023-04-10T09:49:09.388Z,15.64
2023-04-10T09:51:39.239Z,15.66
2023-04-10T09:54:07.131Z,15.75
2023-04-10T09:56:40.100Z,16.46
2023-04-10T09:59:09.440Z,16.57
2023-04-10T10:01:41.115Z,16.39
2023-04-10T10:04:09.343Z,16.85
2023-04-10T10:06:40.357Z,16.74
2023-04-10T10:09:08.325Z,16.69
2023-04-10T10:11:36.832Z,17.01
2023-04-10T10:14:10.365Z,17.41
2023-04-10T10:16:44.763Z,16.99
2023-04-10T10:19:17.475Z,17.76
2023-04-10T10:21:46.270Z,17.46
2023-04-10T10:24:14.779Z,17.48
2023-04-10T10:26:45.353Z,16.85
2023-04-10T10:29:18.526Z,17.18
2023-04-10T10:31:48.657Z,16.62
2023-04-10T10:34:17.521Z,17.47
2023-04-10T10:36:45.405Z,18.25
2023-04-10T10:39:30.330Z,18.24
2023-04-10T10:42:07.193Z,18.75
2023-04-10T10:44:42.908Z,19.11
2023-04-10T10:47:18.491Z,18.21
2023-04-10T10:49:57.668Z,17.26
2023-04-10T10:52:38.718Z,18.50
2023-04-10T10:55:38.525Z,17.82
2023-04-10T10:58:08.067Z,18.52
2023-04-10T11:01:15.573Z,17.82
2023-04-10T11:03:45.806Z,17.75
2023-04-10T11:06:17.076Z,18.30
2023-04-10T11:08:47.109Z,18.44
2023-04-10T11:11:17.066Z,18.54
2023-04-10T11:14:18.884Z,18.34
2023-04-10T11:16:48.685Z,17.71
2023-04-10T11:19:22.688Z,18.28
2023-04-10T11:22:10.534Z,18.27
2023-04-10T11:24:56.280Z,17.80
2023-04-10T11:27:46.233Z,17.83
2023-04-10T11:30:31.108Z,17.73
2023-04-10T11:33:00.349Z,17.40
2023-04-10T11:35:31.479Z,17.96
2023-04-10T11:38:19.288Z,17.52
2023-04-10T11:40:58.420Z,17.60
2023-04-10T11:43:26.461Z,17.99
2023-04-10T11:46:01.537Z,17.70
2023-04-10T11:48:29.668Z,17.29
2023-04-10T11:51:01.643Z,17.77
2023-04-10T11:53:30.195Z,18.56
2023-04-10T11:55:58.685Z,18.50
2023-04-10T11:58:28.003Z,18.50
2023-04-10T12:01:03.770Z,18.12
2023-04-10T12:03:39.937Z,18.20
2023-04-10T12:06:11.957Z,18.21
2023-04-10T12:08:41.703Z,17.86
2023-04-10T12:11:11.319Z,18.21
2023-04-10T12:13:39.564Z,17.57
2023-04-10T12:16:09.487Z,17.62
2023-04-10T12:18:38.048Z,17.50
2023-04-10T12:21:08.191Z,17.57
2023-04-10T12:23:40.100Z,17.78
2023-04-10T12:26:11.193Z,17.62
2023-04-10T12:28:40.562Z,17.75
2023-04-10T12:31:09.303Z,17.62
2023-04-10T12:33:37.537Z,17.67
2023-04-10T12:36:06.111Z,18.06
2023-04-10T12:38:43.119Z,18.62
2023-04-10T12:41:11.885Z,18.44
2023-04-10T12:43:41.896Z,18.14
2023-04-10T12:46:11.671Z,17.88
2023-04-10T12:48:39.621Z,17.87
2023-04-10T12:51:08.126Z,18.64
2023-04-10T12:53:46.133Z,18.64
2023-04-10T12:56:14.775Z,18.53
2023-04-10T12:58:43.050Z,18.97
2023-04-10T13:01:11.125Z,18.55
2023-04-10T13:03:39.623Z,18.72
2023-04-10T13:06:08.766Z,18.34
2023-04-10T13:08:36.911Z,18.40
2023-04-10T13:11:07.308Z,18.53
2023-04-10T13:13:35.510Z,18.56
2023-04-10T13:16:03.707Z,18.36
2023-04-10T13:18:31.691Z,18.00
2023-04-10T13:20:59.580Z,17.86
2023-04-10T13:23:27.510Z,17.62
2023-04-10T13:25:56.781Z,18.00
2023-04-10T13:28:26.397Z,17.76
2023-04-10T13:30:54.237Z,17.63
2023-04-10T13:33:22.219Z,17.74
2023-04-10T13:35:50.060Z,18.09
2023-04-10T13:38:19.236Z,18.08
2023-04-10T13:40:48.612Z,18.14
2023-04-10T13:43:16.700Z,18.41
2023-04-10T13:45:46.119Z,18.49
2023-04-10T13:48:16.062Z,18.41
2023-04-10T13:50:44.384Z,18.25
2023-04-10T13:53:12.548Z,18.35
2023-04-10T13:55:43.682Z,18.15
2023-04-10T13:58:13.444Z,18.04
2023-04-10T14:00:41.509Z,18.08
2023-04-10T14:03:12.263Z,18.08
2023-04-10T14:05:40.673Z,18.46
2023-04-10T14:08:11.612Z,18.77
2023-04-10T14:10:40.450Z,18.50
2023-04-10T14:13:09.099Z,18.88
2023-04-10T14:15:37.041Z,18.94
2023-04-10T14:18:05.051Z,18.85
2023-04-10T14:20:34.601Z,19.34
2023-04-10T14:23:02.795Z,19.36
2023-04-10T14:25:30.823Z,18.63
2023-04-10T14:27:59.416Z,18.86
2023-04-10T14:30:30.618Z,19.16
2023-04-10T14:32:58.563Z,18.66
2023-04-10T14:35:26.598Z,19.04
2023-04-10T14:37:55.911Z,19.07
2023-04-10T14:40:23.997Z,19.02
2023-04-10T14:42:53.114Z,18.70
2023-04-10T14:45:21.001Z,18.70
2023-04-10T14:47:48.887Z,18.90
2023-04-10T14:50:17.150Z,19.17
2023-04-10T14:52:45.128Z,19.19
2023-04-10T14:55:14.605Z,18.82
2023-04-10T14:57:42.403Z,18.92
2023-04-10T15:00:11.479Z,19.07
2023-04-10T15:02:39.483Z,19.29
2023-04-10T15:05:08.199Z,19.23
2023-04-10T15:07:36.104Z,19.51
2023-04-10T15:10:04.275Z,19.78
2023-04-10T15:12:33.636Z,19.62
2023-04-10T15:15:01.601Z,19.44
2023-04-10T15:17:29.841Z,18.97
2023-04-10T15:19:57.782Z,19.04
2023-04-10T15:22:26.781Z,18.99
2023-04-10T15:24:54.737Z,18.71
2023-04-10T15:27:22.699Z,18.56
2023-04-10T15:29:52.048Z,18.34
2023-04-10T15:32:19.955Z,18.56
2023-04-10T15:34:47.868Z,18.19
2023-04-10T15:37:15.824Z,17.99
2023-04-10T15:39:43.784Z,18.03
2023-04-10T15:42:12.471Z,17.76
2023-04-10T15:44:40.300Z,17.79
2023-04-10T15:47:09.769Z,18.15
2023-04-10T15:49:38.826Z,17.89
2023-04-10T15:52:07.384Z,17.73
2023-04-10T15:54:35.783Z,17.69
2023-04-10T15:57:04.303Z,17.52
2023-04-10T15:59:33.744Z,17.57
2023-04-10T16:02:01.639Z,17.67
2023-04-10T16:04:31.520Z,17.76
2023-04-10T16:06:59.701Z,17.50
2023-04-10T16:09:27.667Z,17.52
2023-04-10T16:11:56.169Z,17.43
2023-04-10T16:14:24.222Z,17.33
2023-04-10T16:16:52.130Z,17.15
2023-04-10T16:19:20.169Z,17.17
2023-04-10T16:21:51.051Z,17.08
2023-04-10T16:24:19.165Z,17.11
2023-04-10T16:26:47.022Z,17.18
2023-04-10T16:29:16.065Z,17.15
2023-04-10T16:31:44.033Z,16.88
2023-04-10T16:34:12.098Z,16.92
2023-04-10T16:36:40.055Z,16.93
2023-04-10T16:39:09.290Z,16.95
2023-04-10T16:41:37.132Z,16.82
2023-04-10T16:44:05.020Z,16.80
2023-04-10T16:46:33.202Z,16.80
2023-04-10T16:49:01.488Z,16.82
2023-04-10T16:51:29.631Z,16.82
2023-04-10T16:53:57.438Z,16.84
2023-04-10T16:56:26.946Z,16.78
2023-04-10T16:58:55.146Z,16.65
2023-04-10T17:01:26.025Z,16.53
2023-04-10T17:03:55.184Z,16.44
2023-04-10T17:06:23.271Z,16.35
2023-04-10T17:08:51.233Z,16.30
2023-04-10T17:11:19.174Z,16.17
2023-04-10T17:13:48.473Z,16.16
2023-04-10T17:16:16.555Z,16.08
2023-04-10T17:18:44.723Z,16.11
2023-04-10T17:21:13.286Z,16.04
2023-04-10T17:23:41.897Z,16.06
2023-04-10T17:26:14.601Z,15.98
2023-04-10T17:28:44.835Z,16.00
2023-04-10T17:31:14.760Z,15.97
2023-04-10T17:33:42.946Z,16.00
2023-04-10T17:36:12.913Z,15.89
2023-04-10T17:38:41.799Z,15.82
2023-04-10T17:41:10.767Z,15.77
2023-04-10T17:43:38.689Z,15.76
2023-04-10T17:46:07.078Z,15.65
2023-04-10T17:48:38.994Z,15.63
2023-04-10T17:51:07.695Z,15.37
2023-04-10T17:53:35.901Z,15.26
2023-04-10T17:56:03.862Z,15.17
2023-04-10T17:58:31.896Z,15.09
2023-04-10T18:00:59.928Z,15.04
2023-04-10T18:03:27.914Z,15.06
2023-04-10T18:05:57.328Z,14.97
2023-04-10T18:08:25.422Z,15.00
2023-04-10T18:10:53.253Z,14.98
2023-04-10T18:13:21.128Z,15.04
2023-04-10T18:15:49.161Z,15.10
2023-04-10T18:18:17.092Z,15.12
2023-04-10T18:20:44.988Z,15.14
2023-04-10T18:23:14.746Z,15.08
2023-04-10T18:25:42.771Z,15.18
2023-04-10T18:28:15.002Z,15.16
2023-04-10T18:30:44.286Z,15.18
2023-04-10T18:33:12.419Z,15.06
2023-04-10T18:35:40.365Z,15.02
2023-04-10T18:38:08.237Z,14.98
2023-04-10T18:40:37.775Z,14.97
2023-04-10T18:43:05.612Z,14.95
2023-04-10T18:45:34.832Z,14.95
2023-04-10T18:48:02.854Z,14.89
2023-04-10T18:50:31.832Z,14.89
2023-04-10T18:52:59.892Z,14.82
2023-04-10T18:55:27.667Z,14.81
2023-04-10T18:57:57.466Z,14.81
2023-04-10T19:00:25.412Z,14.81
2023-04-10T19:02:53.397Z,14.70
2023-04-10T19:05:21.419Z,14.72
2023-04-10T19:08:00.565Z,14.73
2023-04-10T19:10:29.408Z,14.71
2023-04-10T19:12:58.781Z,14.74
2023-04-10T19:15:26.974Z,14.70
2023-04-10T19:17:55.349Z,14.62
2023-04-10T19:20:49.082Z,14.69
2023-04-10T19:23:11.733Z,14.66
2023-04-10T19:25:39.715Z,14.70
2023-04-10T19:28:09.081Z,14.68
2023-04-10T19:30:36.995Z,14.64
2023-04-10T19:33:05.100Z,14.66
2023-04-10T19:35:33.219Z,14.63
2023-04-10T19:38:01.209Z,14.53
2023-04-10T19:40:29.152Z,14.53
2023-04-10T19:42:59.357Z,14.50
2023-04-10T19:45:29.332Z,14.49
2023-04-10T19:47:57.723Z,14.43
2023-04-10T19:50:25.624Z,14.29
2023-04-10T19:52:53.495Z,14.09
2023-04-10T19:55:21.576Z,14.02
2023-04-10T19:57:50.128Z,13.76
2023-04-10T20:00:18.902Z,13.66
2023-04-10T20:02:48.516Z,13.66
2023-04-10T20:05:16.780Z,13.44
2023-04-10T20:07:44.980Z,13.41
2023-04-10T20:10:12.947Z,13.36
2023-04-10T20:12:41.183Z,13.40
2023-04-10T20:15:10.492Z,13.42
2023-04-10T20:17:39.197Z,13.37
2023-04-10T20:20:09.639Z,13.26
2023-04-10T20:22:37.433Z,13.15
2023-04-10T20:25:05.867Z,13.02
2023-04-10T20:27:33.759Z,12.83
2023-04-10T20:30:01.603Z,12.89
2023-04-10T20:32:29.496Z,12.88
2023-04-10T20:34:57.421Z,12.64
2023-04-10T20:37:26.635Z,12.40
2023-04-10T20:39:54.662Z,12.46
2023-04-10T20:42:23.142Z,12.34
2023-04-10T20:44:51.045Z,12.36
2023-04-10T20:47:18.942Z,11.97
2023-04-10T20:49:46.912Z,11.63
2023-04-10T20:52:14.792Z,11.42
2023-04-10T20:54:44.065Z,11.40
2023-04-10T20:57:11.854Z,11.15
2023-04-10T20:59:39.651Z,11.16
2023-04-10T21:02:07.902Z,10.82
2023-04-10T21:04:35.853Z,10.89
2023-04-10T21:07:03.726Z,10.87
2023-04-10T21:09:31.714Z,10.89
2023-04-10T21:12:03.549Z,10.87
2023-04-10T21:14:31.479Z,10.93
2023-04-10T21:16:59.473Z,10.97
2023-04-10T21:19:27.365Z,10.99
2023-04-10T21:21:56.589Z,11.11
2023-04-10T21:24:24.566Z,11.04
2023-04-10T21:26:52.580Z,11.03
2023-04-10T21:29:21.802Z,11.07
2023-04-10T21:31:50.662Z,10.93
2023-04-10T21:34:18.816Z,11.00
2023-04-10T21:36:46.725Z,10.70
2023-04-10T21:39:14.828Z,10.81
2023-04-10T21:41:42.857Z,10.63
2023-04-10T21:44:10.780Z,10.67
2023-04-10T21:46:40.164Z,10.66
2023-04-10T21:49:08.135Z,10.64
2023-04-10T21:51:36.032Z,10.68
2023-04-10T21:54:04.048Z,10.67
2023-04-10T21:56:31.985Z,10.58
2023-04-10T21:58:59.932Z,10.60
2023-04-10T22:01:27.790Z,10.71
2023-04-10T22:03:57.671Z,10.51
2023-04-10T22:06:26.439Z,10.55
2023-04-10T22:08:54.602Z,10.57
2023-04-10T22:11:22.562Z,10.35
2023-04-10T22:13:50.397Z,10.39
2023-04-10T22:16:18.310Z,10.20
2023-04-10T22:18:46.255Z,9.98
2023-04-10T22:21:15.503Z,9.92
2023-04-10T22:23:43.454Z,9.88
2023-04-10T22:26:11.426Z,9.98
2023-04-10T22:28:39.365Z,10.01
2023-04-10T22:31:07.740Z,10.09
2023-04-10T22:33:37.452Z,10.11
2023-04-10T22:36:06.098Z,10.11
2023-04-10T22:38:35.482Z,10.07
2023-04-10T22:41:04.070Z,10.05
2023-04-10T22:43:31.949Z,10.04
2023-04-10T22:45:59.868Z,9.89
2023-04-10T22:48:27.785Z,9.74
2023-04-10T22:50:55.741Z,9.69
2023-04-10T22:53:23.694Z,9.71
2023-04-10T22:55:52.874Z,9.66
2023-04-10T22:58:20.852Z,9.62
2023-04-10T23:00:48.708Z,9.57
2023-04-10T23:03:16.929Z,9.56
2023-04-10T23:05:44.818Z,9.58
2023-04-10T23:08:12.691Z,9.74
2023-04-10T23:10:40.569Z,9.70
2023-04-10T23:13:09.803Z,9.65
2023-04-10T23:15:37.810Z,9.58
2023-04-10T23:18:05.873Z,9.54
2023-04-10T23:20:33.780Z,9.61
2023-04-10T23:23:01.640Z,9.63
2023-04-10T23:25:29.586Z,9.71
2023-04-10T23:27:59.349Z,9.78
2023-04-10T23:30:29.018Z,9.56
2023-04-10T23:32:57.002Z,9.67
2023-04-10T23:35:25.008Z,9.71
2023-04-10T23:37:53.622Z,9.71
2023-04-10T23:40:22.571Z,9.63
2023-04-10T23:42:50.478Z,9.67
2023-04-10T23:45:18.359Z,9.58
2023-04-10T23:47:50.227Z,9.60
2023-04-10T23:50:19.074Z,9.69
2023-04-10T23:52:49.663Z,9.69
2023-04-10T23:55:18.071Z,9.72
2023-04-10T23:57:46.079Z,9.77
